Unicom:                    122.8

AWOS:                  118.275

Elevation           1458’ MSL

TPA:                   2500’ MSL

06/24:         5003’ L   75’ W

PAPI:       06/Left     24/Left

(Operate lights on unicom freq.)

Traffic Pattern: Left

Beacon: Sunset to Sunrise

Windsock: yes, lighted

Segmented Circle: No

 

Cleveland Center: 126.72/291.65

FSS: Altoona

[Source: ADDS]
METAR
KFKL 291856Z AUTO 02007KT 10SM OVC019 M01/M05 A3011 RMK AO2 SLP216 T10061050 FZRANO =
KFKL 291921Z 2919/3018 32003KT P6SM BKN018 FM300000 04003KT P6SM SCT020 FM301400 09003KT P6SM OVC050
TAF
KFKL 291921Z 2919/3018 32003KT P6SM BKN018 FM300000 04003KT P6SM SCT020 FM301400 09003KT P6SM OVC050 =
[Source: ADDS]
METAR
KDUJ 291953Z AUTO 36003KT 10SM CLR 00/M08 A3006 RMK AO2 SLP197 T00001078 =
KDUJ 291732Z 2918/3018 32004KT P6SM BKN025 FM291900 35006KT P6SM OVC040 FM300000 03003KT P6SM BKN250 FM301500 08005KT P6SM OVC100
TAF
KDUJ 291732Z 2918/3018 32004KT P6SM BKN025 FM291900 35006KT P6SM OVC040 FM300000 03003KT P6SM BKN250 FM301500 08005KT P6SM OVC100 =

Development areas as listed in the Pennsylvania Department of Transportation,

Bureau of Aviation Airport Properties Directory

 

Area 1 - 7 acre area for development needing access to runway 

Area 2 - 7 acre area for development not needing access to runway

There are several other Industrial Development areas available on the airport, and at other sites with easy access to the airport.

Please contact the Clarion County Airport Authority at (814) 226 - 9993, or manager@clarionairport.com

You can also contact the Clarion County Economic Development Corporation at (814) 226 - 9045.

 

Resourceful Links:

Clarion Chamber of Commerce https://www.clarionpa.com/

Clarion County Economic Development Corporation http://www.callclarionpa.com/